Time;durP1;ratioP1;P1;durP2;ratioP2;P2;SDS_P1;SDS_P2;PMS_P1;PMS_P2;Temp;Humidity;BMP_temperature;BMP_pressure;BME280_temperature;BME280_humidity;BME280_pressure;Samples;Min_cycle;Max_cycle;Signal;HPM_P1;HPM_P2
2021/08/05 00:00:35;;;;;;;7.40;6.70;;;;;;;;;;2099090;28;20534;-58
2021/08/05 00:01:35;;;;;;;7.85;7.25;;;;;;;;;;2090284;28;20174;-57
2021/08/05 00:02:36;;;;;;;7.45;6.85;;;;;;;;;;2097008;28;20179;-57
2021/08/05 00:03:36;;;;;;;7.57;6.93;;;;;;;;;;2087179;28;20203;-54
2021/08/05 00:04:36;;;;;;;7.18;6.60;;;;;;;;;;2087831;28;20208;-55
2021/08/05 00:05:38;;;;;;;7.80;7.10;;;;;;;;;;2092446;28;20179;-54
2021/08/05 00:06:38;;;;;;;7.05;6.55;;;;;;;;;;2095344;28;20586;-56
2021/08/05 00:07:39;;;;;;;8.07;7.28;;;;;;;;;;2091413;28;20167;-57
2021/08/05 00:08:39;;;;;;;7.68;7.07;;;;;;;;;;2095080;28;20175;-56
2021/08/05 00:09:43;;;;;;;7.63;7.07;;;;;;;;;;2096642;28;20194;-53
2021/08/05 00:10:43;;;;;;;8.85;8.05;;;;;;;;;;2097947;28;20170;-52
2021/08/05 00:11:43;;;;;;;7.78;7.07;;;;;;;;;;2082285;28;20191;-55
2021/08/05 00:12:43;;;;;;;7.40;6.78;;;;;;;;;;2087900;28;20178;-55
2021/08/05 00:13:44;;;;;;;7.72;7.22;;;;;;;;;;2098036;28;20230;-56
2021/08/05 00:14:44;;;;;;;8.35;7.75;;;;;;;;;;2097616;28;20167;-54
2021/08/05 00:15:44;;;;;;;8.23;7.63;;;;;;;;;;2088023;28;20167;-57
2021/08/05 00:16:44;;;;;;;8.32;7.63;;;;;;;;;;2079590;28;20695;-54
2021/08/05 00:17:45;;;;;;;8.23;7.55;;;;;;;;;;2080820;28;20183;-58
2021/08/05 00:18:45;;;;;;;8.20;7.60;;;;;;;;;;2092374;28;20179;-56
2021/08/05 00:19:45;;;;;;;7.78;7.18;;;;;;;;;;2097799;28;20232;-53
2021/08/05 00:20:46;;;;;;;7.70;6.97;;;;;;;;;;2096443;28;20287;-55
2021/08/05 00:21:46;;;;;;;7.55;6.97;;;;;;;;;;2088520;28;20676;-53
2021/08/05 00:22:46;;;;;;;7.47;6.88;;;;;;;;;;2096850;28;20170;-54
2021/08/05 00:23:46;;;;;;;7.85;7.15;;;;;;;;;;2097770;28;20199;-55
2021/08/05 00:24:47;;;;;;;8.43;7.80;;;;;;;;;;2097585;28;20585;-56
2021/08/05 00:25:47;;;;;;;8.40;7.70;;;;;;;;;;2098665;28;20223;-53
2021/08/05 00:26:47;;;;;;;9.10;8.30;;;;;;;;;;2097956;28;20179;-53
2021/08/05 00:27:48;;;;;;;8.45;7.75;;;;;;;;;;2089226;28;20191;-57
2021/08/05 00:28:49;;;;;;;8.30;7.70;;;;;;;;;;2076472;28;20156;-55
2021/08/05 00:29:50;;;;;;;7.90;7.30;;;;;;;;;;2085370;28;20221;-59
2021/08/05 00:30:50;;;;;;;8.10;7.50;;;;;;;;;;2086306;28;20695;-56
2021/08/05 00:31:50;;;;;;;8.07;7.40;;;;;;;;;;2088445;28;20195;-58
2021/08/05 00:32:51;;;;;;;8.25;7.55;;;;;;;;;;2096957;28;20171;-56
2021/08/05 00:33:51;;;;;;;8.25;7.65;;;;;;;;;;2085101;28;20677;-58
2021/08/05 00:34:51;;;;;;;8.40;7.80;;;;;;;;;;2084869;28;20534;-56
2021/08/05 00:35:52;;;;;;;8.68;7.82;;;;;;;;;;2088092;28;20167;-55
2021/08/05 00:36:53;;;;;;;8.90;8.20;;;;;;;;;;2079877;28;20171;-54
2021/08/05 00:37:53;;;;;;;8.70;8.00;;;;;;;;;;2090861;28;20202;-58
2021/08/05 00:38:53;;;;;;;8.65;7.78;;;;;;;;;;2095674;28;20602;-57
2021/08/05 00:39:53;;;;;;;8.93;8.20;;;;;;;;;;2087591;28;20271;-57
2021/08/05 00:40:54;;;;;;;8.63;7.80;;;;;;;;;;2087584;28;20329;-56
2021/08/05 00:41:54;;;;;;;8.38;7.53;;;;;;;;;;2087750;28;20649;-57
2021/08/05 00:42:54;;;;;;;7.80;7.20;;;;;;;;;;2077624;28;20183;-54
2021/08/05 00:43:55;;;;;;;8.75;8.05;;;;;;;;;;2071759;28;20593;-53
2021/08/05 00:44:55;;;;;;;8.85;8.02;;;;;;;;;;2075408;28;20704;-56
2021/08/05 00:45:55;;;;;;;10.35;8.55;;;;;;;;;;2096917;28;20170;-54
2021/08/05 00:46:55;;;;;;;8.60;7.90;;;;;;;;;;2081990;28;20563;-54
2021/08/05 00:47:56;;;;;;;9.70;8.80;;;;;;;;;;2081723;28;20224;-56
2021/08/05 00:48:56;;;;;;;7.32;6.68;;;;;;;;;;2079132;28;20391;-54
2021/08/05 00:49:57;;;;;;;8.02;7.43;;;;;;;;;;2081929;28;20291;-55
2021/08/05 00:50:58;;;;;;;8.48;7.88;;;;;;;;;;2088271;28;20176;-52
2021/08/05 00:51:59;;;;;;;8.20;7.60;;;;;;;;;;2079427;28;20279;-55
2021/08/05 00:52:59;;;;;;;9.63;8.88;;;;;;;;;;2074376;28;20167;-57
2021/08/05 00:54:00;;;;;;;10.07;9.07;;;;;;;;;;2078662;28;20176;-53
2021/08/05 00:55:00;;;;;;;9.80;8.95;;;;;;;;;;2086086;28;20267;-53
2021/08/05 00:56:01;;;;;;;8.95;8.15;;;;;;;;;;2085849;28;20200;-56
2021/08/05 00:57:01;;;;;;;9.52;8.80;;;;;;;;;;2082090;28;20672;-56
2021/08/05 00:58:02;;;;;;;9.55;8.75;;;;;;;;;;2079290;28;20183;-56
2021/08/05 00:59:02;;;;;;;10.38;9.38;;;;;;;;;;2071362;28;20268;-58
2021/08/05 01:00:03;;;;;;;9.40;8.63;;;;;;;;;;2074272;28;20214;-53
2021/08/05 01:01:10;;;;;;;10.18;9.38;;;;;;;;;;2079329;28;20719;-57
2021/08/05 01:02:12;;;;;;;9.52;8.70;;;;;;;;;;2089269;28;20550;-55
2021/08/05 01:03:33;;;;;;;10.60;9.60;;;;;;;;;;2088227;28;20554;-54
2021/08/05 01:04:34;;;;;;;10.98;9.98;;;;;;;;;;2083288;28;20626;-54
2021/08/05 01:05:40;;;;;;;11.38;10.18;;;;;;;;;;2079250;28;20172;-56
2021/08/05 01:06:46;;;;;;;11.30;10.38;;;;;;;;;;2079233;28;20219;-57
2021/08/05 01:07:55;;;;;;;10.40;9.45;;;;;;;;;;2072943;28;20224;-53
2021/08/05 01:09:00;;;;;;;11.82;10.63;;;;;;;;;;2087335;28;20164;-55
2021/08/05 01:10:39;;;;;;;11.80;10.70;;;;;;;;;;2079256;28;20283;-53
2021/08/05 01:11:44;;;;;;;13.45;12.25;;;;;;;;;;2067088;28;20683;-53
2021/08/05 01:12:49;;;;;;;13.90;12.68;;;;;;;;;;2071370;28;20177;-57
2021/08/05 01:13:56;;;;;;;14.30;13.00;;;;;;;;;;2059996;28;20284;-53
2021/08/05 01:15:01;;;;;;;16.10;14.57;;;;;;;;;;2064097;28;20265;-53
2021/08/05 01:16:04;;;;;;;14.52;13.02;;;;;;;;;;2070535;28;20169;-56
2021/08/05 01:17:05;;;;;;;16.15;14.70;;;;;;;;;;2068308;28;20198;-57
2021/08/05 01:18:07;;;;;;;15.05;13.75;;;;;;;;;;2084226;28;20199;-60
2021/08/05 01:19:16;;;;;;;13.70;12.50;;;;;;;;;;2086122;28;20168;-58
2021/08/05 01:20:17;;;;;;;13.50;12.30;;;;;;;;;;2081827;28;20208;-56
2021/08/05 01:21:20;;;;;;;14.90;13.57;;;;;;;;;;2084331;28;20176;-52
2021/08/05 01:22:22;;;;;;;14.88;13.52;;;;;;;;;;2095433;28;20709;-56
2021/08/05 01:23:48;;;;;;;15.25;13.85;;;;;;;;;;2089398;28;20204;-56
2021/08/05 01:25:01;;;;;;;13.95;12.65;;;;;;;;;;2057967;28;20200;-58
2021/08/05 01:26:15;;;;;;;14.18;12.98;;;;;;;;;;2091611;28;20225;-55
2021/08/05 01:27:16;;;;;;;15.27;13.93;;;;;;;;;;2095151;28;20167;-56
2021/08/05 01:28:16;;;;;;;15.52;14.13;;;;;;;;;;2089650;28;20168;-52
2021/08/05 01:29:17;;;;;;;15.10;13.57;;;;;;;;;;2081436;28;20183;-57
2021/08/05 01:30:18;;;;;;;14.13;12.80;;;;;;;;;;2088361;28;20195;-57
2021/08/05 01:31:21;;;;;;;13.90;12.60;;;;;;;;;;2095444;28;20177;-55
2021/08/05 01:32:21;;;;;;;14.27;12.98;;;;;;;;;;2084312;28;20168;-52
2021/08/05 01:33:22;;;;;;;13.30;11.95;;;;;;;;;;2086787;28;20656;-58
2021/08/05 01:34:23;;;;;;;14.77;13.38;;;;;;;;;;2091304;28;20168;-53
2021/08/05 01:35:25;;;;;;;14.25;12.93;;;;;;;;;;2083441;28;20179;-54
2021/08/05 01:36:26;;;;;;;12.98;11.68;;;;;;;;;;2087308;28;20167;-56
2021/08/05 01:37:27;;;;;;;12.95;11.85;;;;;;;;;;2089953;28;20156;-56
2021/08/05 01:38:28;;;;;;;13.63;12.43;;;;;;;;;;2084487;28;20295;-53
2021/08/05 01:39:29;;;;;;;12.48;11.43;;;;;;;;;;2081741;28;20175;-55
2021/08/05 01:40:30;;;;;;;13.35;12.15;;;;;;;;;;2079660;28;20624;-57
2021/08/05 01:41:30;;;;;;;13.48;12.30;;;;;;;;;;2083263;28;20176;-56
2021/08/05 01:42:31;;;;;;;12.68;11.57;;;;;;;;;;2087360;28;20226;-56
2021/08/05 01:43:31;;;;;;;13.07;11.90;;;;;;;;;;2081186;28;20345;-57
2021/08/05 01:44:32;;;;;;;12.13;11.07;;;;;;;;;;2081155;28;20219;-57
2021/08/05 01:45:33;;;;;;;12.13;11.13;;;;;;;;;;2098330;28;20650;-56
2021/08/05 01:46:34;;;;;;;12.50;11.20;;;;;;;;;;2089468;28;20528;-57
2021/08/05 01:47:37;;;;;;;12.63;11.48;;;;;;;;;;2080672;28;20569;-53
2021/08/05 01:48:38;;;;;;;12.30;11.35;;;;;;;;;;2083590;28;20183;-57
2021/08/05 01:49:39;;;;;;;12.85;11.65;;;;;;;;;;2080100;28;20176;-55
2021/08/05 01:50:41;;;;;;;13.35;12.07;;;;;;;;;;2072119;28;20181;-56
2021/08/05 01:51:41;;;;;;;12.68;11.68;;;;;;;;;;2080850;28;20198;-57
2021/08/05 01:52:43;;;;;;;12.93;11.82;;;;;;;;;;2080889;28;20172;-57
2021/08/05 01:53:43;;;;;;;12.98;11.85;;;;;;;;;;2081312;28;20204;-57
2021/08/05 01:54:43;;;;;;;12.63;11.52;;;;;;;;;;2088959;28;20222;-56
2021/08/05 01:55:44;;;;;;;13.80;12.55;;;;;;;;;;2097938;28;20658;-56
2021/08/05 01:56:45;;;;;;;13.63;12.45;;;;;;;;;;2089202;28;20187;-56
2021/08/05 01:57:45;;;;;;;13.23;12.18;;;;;;;;;;2088521;28;20160;-55
2021/08/05 01:58:45;;;;;;;14.50;13.30;;;;;;;;;;2081090;28;20724;-58
2021/08/05 01:59:46;;;;;;;14.23;12.77;;;;;;;;;;2080634;28;20183;-56
2021/08/05 02:00:46;;;;;;;14.75;13.48;;;;;;;;;;2089910;28;20202;-57
2021/08/05 02:01:46;;;;;;;14.35;13.05;;;;;;;;;;2098212;28;20224;-58
2021/08/05 02:02:48;;;;;;;13.25;12.15;;;;;;;;;;2088681;28;20179;-58
2021/08/05 02:03:54;;;;;;;14.45;13.23;;;;;;;;;;2080817;28;20203;-57
2021/08/05 02:05:00;;;;;;;13.32;12.02;;;;;;;;;;2073557;28;20309;-56
2021/08/05 02:06:04;;;;;;;13.63;12.43;;;;;;;;;;2074256;28;20645;-59
2021/08/05 02:07:08;;;;;;;14.20;13.00;;;;;;;;;;2089027;28;20184;-58
2021/08/05 02:08:09;;;;;;;14.85;13.60;;;;;;;;;;2078017;28;20167;-59
2021/08/05 02:09:15;;;;;;;13.40;12.27;;;;;;;;;;2089036;28;20218;-56
2021/08/05 02:10:18;;;;;;;14.77;13.50;;;;;;;;;;2079987;28;20191;-57
2021/08/05 02:11:22;;;;;;;15.05;13.85;;;;;;;;;;2069310;28;20215;-57
2021/08/05 02:12:22;;;;;;;14.77;13.48;;;;;;;;;;2076405;28;20183;-58
2021/08/05 02:13:26;;;;;;;15.63;14.13;;;;;;;;;;2086259;28;20194;-58
2021/08/05 02:14:27;;;;;;;15.23;13.93;;;;;;;;;;2087780;28;20186;-58
2021/08/05 02:15:29;;;;;;;14.15;12.95;;;;;;;;;;2081482;28;20199;-59
2021/08/05 02:16:30;;;;;;;14.35;13.05;;;;;;;;;;2087376;28;20167;-56
2021/08/05 02:17:33;;;;;;;15.30;13.90;;;;;;;;;;2090011;28;20178;-58
2021/08/05 02:18:34;;;;;;;15.02;13.70;;;;;;;;;;2074940;28;20184;-60
2021/08/05 02:19:35;;;;;;;14.35;12.95;;;;;;;;;;2070282;28;20733;-55
2021/08/05 02:20:35;;;;;;;14.70;13.48;;;;;;;;;;2073231;28;20649;-56
2021/08/05 02:21:36;;;;;;;15.30;13.90;;;;;;;;;;2088227;28;20167;-56
2021/08/05 02:22:41;;;;;;;15.32;14.00;;;;;;;;;;2089625;28;20258;-54
2021/08/05 02:23:41;;;;;;;16.02;14.45;;;;;;;;;;2081687;28;20196;-53
2021/08/05 02:24:42;;;;;;;14.93;13.55;;;;;;;;;;2089640;28;20183;-55
2021/08/05 02:25:43;;;;;;;15.18;13.90;;;;;;;;;;2081225;28;20679;-55
2021/08/05 02:26:43;;;;;;;15.32;13.93;;;;;;;;;;2080992;28;20262;-53
2021/08/05 02:27:44;;;;;;;15.20;13.73;;;;;;;;;;2098571;28;20178;-54
2021/08/05 02:28:45;;;;;;;15.82;14.40;;;;;;;;;;2082037;28;20176;-55
2021/08/05 02:29:45;;;;;;;16.50;15.02;;;;;;;;;;2079624;28;20180;-54
2021/08/05 02:30:46;;;;;;;16.30;14.85;;;;;;;;;;2080888;28;20250;-56
2021/08/05 02:31:46;;;;;;;15.40;14.00;;;;;;;;;;2079887;28;20730;-54
2021/08/05 02:32:47;;;;;;;16.17;14.68;;;;;;;;;;2089109;28;20180;-51
2021/08/05 02:33:49;;;;;;;15.23;13.95;;;;;;;;;;2088431;28;20192;-54
2021/08/05 02:34:50;;;;;;;16.40;14.90;;;;;;;;;;2075616;28;20172;-51
2021/08/05 02:35:51;;;;;;;16.30;14.80;;;;;;;;;;2080400;28;20176;-54
2021/08/05 02:36:52;;;;;;;16.00;14.50;;;;;;;;;;2080800;28;20172;-55
2021/08/05 02:37:54;;;;;;;14.32;13.13;;;;;;;;;;2088676;28;20234;-51
2021/08/05 02:38:55;;;;;;;15.40;14.10;;;;;;;;;;2088733;28;20282;-56
2021/08/05 02:39:55;;;;;;;15.60;14.30;;;;;;;;;;2088244;28;20402;-57
2021/08/05 02:40:56;;;;;;;17.85;16.25;;;;;;;;;;2088801;28;20647;-52
2021/08/05 02:41:58;;;;;;;18.15;16.45;;;;;;;;;;2079862;28;20180;-50
2021/08/05 02:42:59;;;;;;;18.05;16.38;;;;;;;;;;2085667;28;20691;-53
2021/08/05 02:44:00;;;;;;;18.27;16.58;;;;;;;;;;2087111;28;20172;-55
2021/08/05 02:45:00;;;;;;;18.83;17.17;;;;;;;;;;2071984;28;20188;-51
2021/08/05 02:46:02;;;;;;;20.65;18.60;;;;;;;;;;2066765;28;20184;-53
2021/08/05 02:47:02;;;;;;;20.42;18.50;;;;;;;;;;2088434;28;20171;-53
2021/08/05 02:48:03;;;;;;;19.35;17.65;;;;;;;;;;2086905;28;20230;-53
2021/08/05 02:49:04;;;;;;;19.38;17.48;;;;;;;;;;2086369;28;20202;-52
2021/08/05 02:50:06;;;;;;;19.77;17.88;;;;;;;;;;2088766;28;20698;-56
2021/08/05 02:51:06;;;;;;;19.90;17.80;;;;;;;;;;2096511;28;20175;-54
2021/08/05 02:52:06;;;;;;;19.55;17.65;;;;;;;;;;2092976;28;20725;-50
2021/08/05 02:53:07;;;;;;;18.52;16.67;;;;;;;;;;2088445;28;20175;-52
2021/08/05 02:54:08;;;;;;;20.30;18.33;;;;;;;;;;2079314;28;20194;-52
2021/08/05 02:55:08;;;;;;;20.88;18.88;;;;;;;;;;2088781;28;20225;-57
2021/08/05 02:56:09;;;;;;;20.67;18.70;;;;;;;;;;2088628;28;20337;-57
2021/08/05 02:57:10;;;;;;;21.85;19.65;;;;;;;;;;2089039;28;20211;-54
2021/08/05 02:58:11;;;;;;;22.27;20.05;;;;;;;;;;2088446;28;20191;-53
2021/08/05 02:59:11;;;;;;;22.88;20.67;;;;;;;;;;2085999;28;20544;-52
2021/08/05 03:00:13;;;;;;;21.58;19.38;;;;;;;;;;2088885;28;20172;-50
2021/08/05 03:01:13;;;;;;;22.52;20.33;;;;;;;;;;2096774;28;20171;-54
2021/08/05 03:02:14;;;;;;;23.70;21.20;;;;;;;;;;2096164;28;20170;-51
2021/08/05 03:03:20;;;;;;;21.90;19.80;;;;;;;;;;2097509;28;20175;-55
2021/08/05 03:04:20;;;;;;;23.73;21.33;;;;;;;;;;2081473;28;20160;-55
2021/08/05 03:05:20;;;;;;;24.15;21.63;;;;;;;;;;2086153;28;20709;-51
2021/08/05 03:06:22;;;;;;;22.83;20.45;;;;;;;;;;2097796;28;20175;-54
2021/08/05 03:07:25;;;;;;;20.52;18.45;;;;;;;;;;2089615;28;20180;-56
2021/08/05 03:08:25;;;;;;;21.50;19.35;;;;;;;;;;2087644;28;20168;-54
2021/08/05 03:09:26;;;;;;;20.98;18.77;;;;;;;;;;2096271;28;20654;-55
2021/08/05 03:10:26;;;;;;;22.33;19.98;;;;;;;;;;2097434;28;20195;-53
2021/08/05 03:11:26;;;;;;;21.98;19.77;;;;;;;;;;2093430;28;20217;-54
2021/08/05 03:12:27;;;;;;;23.23;20.60;;;;;;;;;;2081205;28;20270;-53
2021/08/05 03:13:27;;;;;;;23.60;21.17;;;;;;;;;;2086155;28;20266;-55
2021/08/05 03:14:27;;;;;;;24.90;22.45;;;;;;;;;;2088404;28;20168;-53
2021/08/05 03:15:29;;;;;;;24.90;22.33;;;;;;;;;;2088231;28;20191;-52
2021/08/05 03:16:29;;;;;;;24.25;21.63;;;;;;;;;;2086169;28;20793;-57
2021/08/05 03:17:30;;;;;;;24.02;21.63;;;;;;;;;;2083442;28;20275;-53
2021/08/05 03:18:30;;;;;;;25.58;22.88;;;;;;;;;;2080183;28;20574;-56
2021/08/05 03:19:30;;;;;;;23.30;21.05;;;;;;;;;;2082964;28;20165;-51
2021/08/05 03:20:30;;;;;;;24.90;22.40;;;;;;;;;;2095330;28;20171;-53
2021/08/05 03:21:31;;;;;;;24.23;21.60;;;;;;;;;;2095940;28;20178;-54
2021/08/05 03:22:31;;;;;;;23.08;20.77;;;;;;;;;;2087502;28;20234;-51
2021/08/05 03:23:31;;;;;;;24.08;21.67;;;;;;;;;;2088442;28;20194;-57
2021/08/05 03:24:31;;;;;;;22.70;20.40;;;;;;;;;;2095832;28;20174;-51
2021/08/05 03:25:32;;;;;;;22.23;20.10;;;;;;;;;;2093150;28;20648;-56
2021/08/05 03:26:32;;;;;;;23.35;20.95;;;;;;;;;;2096098;28;20166;-54
2021/08/05 03:27:32;;;;;;;23.33;20.98;;;;;;;;;;2096333;28;20191;-56
2021/08/05 03:28:33;;;;;;;23.27;20.80;;;;;;;;;;2088049;28;20168;-53
2021/08/05 03:29:33;;;;;;;24.17;21.80;;;;;;;;;;2083034;28;20200;-54
2021/08/05 03:30:33;;;;;;;22.23;20.02;;;;;;;;;;2095941;28;20285;-55
2021/08/05 03:31:34;;;;;;;22.48;20.27;;;;;;;;;;2095981;28;20784;-56
2021/08/05 03:32:34;;;;;;;24.00;20.88;;;;;;;;;;2097557;28;20178;-53
2021/08/05 03:33:34;;;;;;;22.70;20.35;;;;;;;;;;2096579;28;20210;-58
2021/08/05 03:34:34;;;;;;;19.90;17.63;;;;;;;;;;2098146;28;20186;-56
2021/08/05 03:35:35;;;;;;;21.85;19.65;;;;;;;;;;2098836;28;20599;-57
2021/08/05 03:36:35;;;;;;;20.27;18.17;;;;;;;;;;2100236;28;20175;-56
2021/08/05 03:37:35;;;;;;;21.77;19.60;;;;;;;;;;2089825;28;20608;-57
2021/08/05 03:38:35;;;;;;;20.40;18.50;;;;;;;;;;2089844;28;20160;-52
2021/08/05 03:39:36;;;;;;;22.98;20.67;;;;;;;;;;2099710;28;20198;-55
2021/08/05 03:40:36;;;;;;;21.90;19.67;;;;;;;;;;2098989;28;20198;-51
2021/08/05 03:41:36;;;;;;;22.52;20.23;;;;;;;;;;2087185;28;20179;-55
2021/08/05 03:42:36;;;;;;;25.48;20.85;;;;;;;;;;2085705;28;20191;-54
2021/08/05 03:43:37;;;;;;;23.83;21.48;;;;;;;;;;2088594;28;20272;-56
2021/08/05 03:44:37;;;;;;;24.20;21.70;;;;;;;;;;2084088;28;20234;-57
2021/08/05 03:45:37;;;;;;;25.02;22.52;;;;;;;;;;2090033;28;20176;-55
2021/08/05 03:46:37;;;;;;;22.42;20.30;;;;;;;;;;2089637;28;20195;-54
2021/08/05 03:47:38;;;;;;;23.13;20.83;;;;;;;;;;2089795;28;20534;-56
2021/08/05 03:48:39;;;;;;;23.92;21.38;;;;;;;;;;2081813;28;20189;-53
2021/08/05 03:49:40;;;;;;;23.85;21.45;;;;;;;;;;2089363;28;20214;-52
2021/08/05 03:50:40;;;;;;;22.80;20.58;;;;;;;;;;2080747;28;20223;-55
2021/08/05 03:51:41;;;;;;;23.42;21.02;;;;;;;;;;2080609;28;20192;-51
2021/08/05 03:52:41;;;;;;;23.05;20.42;;;;;;;;;;2087946;28;20683;-53
2021/08/05 03:53:41;;;;;;;24.48;21.88;;;;;;;;;;2074213;28;20204;-53
2021/08/05 03:54:41;;;;;;;21.63;19.50;;;;;;;;;;2084380;28;20355;-56
2021/08/05 03:55:42;;;;;;;24.05;21.55;;;;;;;;;;2080899;28;20175;-56
2021/08/05 03:56:42;;;;;;;21.85;19.65;;;;;;;;;;2081069;28;20195;-56
2021/08/05 03:57:43;;;;;;;23.88;21.35;;;;;;;;;;2096258;28;20528;-55
2021/08/05 03:58:43;;;;;;;24.42;21.63;;;;;;;;;;2097897;28;20208;-52
2021/08/05 03:59:44;;;;;;;24.30;21.80;;;;;;;;;;2098201;28;20163;-53
2021/08/05 04:00:44;;;;;;;25.27;22.67;;;;;;;;;;2098065;28;21018;-57
2021/08/05 04:01:44;;;;;;;26.10;23.40;;;;;;;;;;2086672;28;21394;-58
2021/08/05 04:02:45;;;;;;;23.92;21.52;;;;;;;;;;2087695;28;20258;-58
2021/08/05 04:03:45;;;;;;;24.25;21.73;;;;;;;;;;2101508;23;20258;-59
2021/08/05 04:04:45;;;;;;;25.00;22.48;;;;;;;;;;2085234;28;20230;-60
2021/08/05 04:05:45;;;;;;;24.02;21.52;;;;;;;;;;2088533;28;20186;-59
2021/08/05 04:06:45;;;;;;;25.73;23.13;;;;;;;;;;2083343;28;20246;-58
2021/08/05 04:07:46;;;;;;;23.58;21.08;;;;;;;;;;2089132;28;20702;-58
2021/08/05 04:08:46;;;;;;;25.38;22.38;;;;;;;;;;2085441;28;20680;-60
2021/08/05 04:09:47;;;;;;;23.23;20.80;;;;;;;;;;2089271;28;20175;-59
2021/08/05 04:10:47;;;;;;;23.90;21.50;;;;;;;;;;2088694;28;20743;-58
2021/08/05 04:11:47;;;;;;;24.60;22.00;;;;;;;;;;2087671;28;20172;-56
2021/08/05 04:12:48;;;;;;;22.08;19.75;;;;;;;;;;2084154;28;20183;-58
2021/08/05 04:13:48;;;;;;;23.85;21.42;;;;;;;;;;2089220;28;20195;-57
2021/08/05 04:14:50;;;;;;;22.42;20.25;;;;;;;;;;2082969;28;20573;-58
2021/08/05 04:15:50;;;;;;;23.02;20.80;;;;;;;;;;2087716;28;20244;-58
2021/08/05 04:16:50;;;;;;;24.33;21.73;;;;;;;;;;2081611;28;20172;-58
2021/08/05 04:17:51;;;;;;;22.45;20.08;;;;;;;;;;2089025;28;20175;-59
2021/08/05 04:18:51;;;;;;;22.40;20.08;;;;;;;;;;2087993;28;20176;-56
2021/08/05 04:19:51;;;;;;;23.30;20.90;;;;;;;;;;2087873;28;20190;-58
2021/08/05 04:20:51;;;;;;;20.35;18.25;;;;;;;;;;2085606;28;20199;-59
2021/08/05 04:21:53;;;;;;;21.45;19.40;;;;;;;;;;2085335;28;20184;-60
2021/08/05 04:22:53;;;;;;;22.67;20.27;;;;;;;;;;2088197;28;20168;-59
2021/08/05 04:23:53;;;;;;;23.25;20.95;;;;;;;;;;2086759;28;20283;-58
2021/08/05 04:24:53;;;;;;;22.70;20.40;;;;;;;;;;2087233;28;20175;-58
2021/08/05 04:25:54;;;;;;;22.20;19.95;;;;;;;;;;2084922;28;20176;-59
2021/08/05 04:26:54;;;;;;;22.55;20.25;;;;;;;;;;2089108;28;20507;-58
2021/08/05 04:27:54;;;;;;;22.77;20.48;;;;;;;;;;2083687;28;20180;-59
2021/08/05 04:28:55;;;;;;;22.70;20.23;;;;;;;;;;2086801;28;20222;-58
2021/08/05 04:29:55;;;;;;;22.40;20.13;;;;;;;;;;2081721;28;20168;-58
2021/08/05 04:30:55;;;;;;;23.17;20.77;;;;;;;;;;2084217;28;20176;-59
2021/08/05 04:31:55;;;;;;;21.88;19.42;;;;;;;;;;2081685;28;20168;-59
2021/08/05 04:32:56;;;;;;;21.83;19.52;;;;;;;;;;2088387;28;20171;-57
2021/08/05 04:33:56;;;;;;;23.70;21.20;;;;;;;;;;2088324;28;20196;-57
2021/08/05 04:34:56;;;;;;;23.63;21.13;;;;;;;;;;2083061;28;20230;-56
2021/08/05 04:35:57;;;;;;;23.05;20.60;;;;;;;;;;2087459;28;20211;-59
2021/08/05 04:36:57;;;;;;;22.13;19.77;;;;;;;;;;2086940;28;20202;-56
2021/08/05 04:37:59;;;;;;;25.67;22.95;;;;;;;;;;2084133;28;20483;-54
2021/08/05 04:38:59;;;;;;;24.80;22.20;;;;;;;;;;2081064;28;20180;-58
2021/08/05 04:39:59;;;;;;;24.05;21.48;;;;;;;;;;2082476;28;20594;-57
2021/08/05 04:40:59;;;;;;;24.83;22.20;;;;;;;;;;2086695;28;20251;-58
2021/08/05 04:42:00;;;;;;;26.10;23.50;;;;;;;;;;2082588;28;20387;-56
2021/08/05 04:43:00;;;;;;;25.42;22.25;;;;;;;;;;2082958;28;20243;-56
2021/08/05 04:44:01;;;;;;;25.15;22.45;;;;;;;;;;2088683;28;20198;-57
2021/08/05 04:45:01;;;;;;;24.92;22.33;;;;;;;;;;2088416;28;20164;-57
2021/08/05 04:46:01;;;;;;;23.60;21.10;;;;;;;;;;2087228;28;20179;-55
2021/08/05 04:47:02;;;;;;;24.25;21.70;;;;;;;;;;2091668;28;20171;-58
2021/08/05 04:48:06;;;;;;;24.75;22.17;;;;;;;;;;2088964;28;20235;-55
2021/08/05 04:49:06;;;;;;;24.40;21.90;;;;;;;;;;2089365;28;20172;-55
2021/08/05 04:50:06;;;;;;;25.42;22.33;;;;;;;;;;2091334;28;20678;-57
2021/08/05 04:51:07;;;;;;;24.60;21.95;;;;;;;;;;2089152;28;20179;-58
2021/08/05 04:52:07;;;;;;;25.10;22.60;;;;;;;;;;2085509;28;20534;-57
2021/08/05 04:53:07;;;;;;;25.00;22.38;;;;;;;;;;2087167;28;20185;-55
2021/08/05 04:54:08;;;;;;;24.58;21.98;;;;;;;;;;2091135;28;20203;-55
2021/08/05 04:55:08;;;;;;;24.52;21.50;;;;;;;;;;2094946;28;20170;-54
2021/08/05 04:56:08;;;;;;;27.55;23.48;;;;;;;;;;2094154;28;20186;-55
2021/08/05 04:57:08;;;;;;;24.05;21.45;;;;;;;;;;2094651;28;20180;-54
2021/08/05 04:58:09;;;;;;;25.92;22.85;;;;;;;;;;2091306;28;20442;-57
2021/08/05 04:59:09;;;;;;;26.15;23.25;;;;;;;;;;2093529;28;20195;-58
2021/08/05 05:00:09;;;;;;;24.50;22.00;;;;;;;;;;2093958;28;20651;-54
2021/08/05 05:01:10;;;;;;;24.75;22.15;;;;;;;;;;2094172;28;20171;-58
2021/08/05 05:02:10;;;;;;;26.20;23.38;;;;;;;;;;2093549;28;20301;-59
2021/08/05 05:03:11;;;;;;;24.33;21.70;;;;;;;;;;2090936;28;20192;-56
2021/08/05 05:04:11;;;;;;;26.50;22.80;;;;;;;;;;2089841;28;20264;-58
2021/08/05 05:05:11;;;;;;;25.17;22.58;;;;;;;;;;2089327;28;20186;-57
2021/08/05 05:06:12;;;;;;;25.38;22.58;;;;;;;;;;2090172;28;20176;-54
2021/08/05 05:07:12;;;;;;;25.08;22.38;;;;;;;;;;2086011;28;20254;-55
2021/08/05 05:08:22;;;;;;;25.42;21.85;;;;;;;;;;2085510;28;20164;-54
2021/08/05 05:09:23;;;;;;;26.80;22.90;;;;;;;;;;2090882;28;20268;-53
2021/08/05 05:10:23;;;;;;;26.17;23.15;;;;;;;;;;2090575;28;20207;-55
2021/08/05 05:11:23;;;;;;;26.55;23.00;;;;;;;;;;2090708;28;20529;-55
2021/08/05 05:12:24;;;;;;;27.00;22.90;;;;;;;;;;2089958;28;20262;-54
2021/08/05 05:13:24;;;;;;;24.88;22.15;;;;;;;;;;2089951;28;20203;-55
2021/08/05 05:14:24;;;;;;;26.50;22.95;;;;;;;;;;2088125;28;20181;-58
2021/08/05 05:15:24;;;;;;;26.67;23.83;;;;;;;;;;2092119;28;20192;-56
2021/08/05 05:16:25;;;;;;;25.67;22.98;;;;;;;;;;2095106;28;20175;-57
2021/08/05 05:17:25;;;;;;;26.50;23.92;;;;;;;;;;2095539;28;20168;-53
2021/08/05 05:18:26;;;;;;;26.92;23.73;;;;;;;;;;2094318;28;20180;-57
2021/08/05 05:19:26;;;;;;;28.15;23.98;;;;;;;;;;2092721;28;20274;-60
2021/08/05 05:20:26;;;;;;;25.73;23.13;;;;;;;;;;2091068;28;20664;-56
2021/08/05 05:21:26;;;;;;;25.52;22.15;;;;;;;;;;2088800;28;20229;-57
2021/08/05 05:22:27;;;;;;;25.23;22.52;;;;;;;;;;2089476;28;20258;-57
2021/08/05 05:23:27;;;;;;;23.70;21.23;;;;;;;;;;2086575;28;20180;-55
2021/08/05 05:24:27;;;;;;;24.67;21.27;;;;;;;;;;2089680;28;20186;-57
2021/08/05 05:25:27;;;;;;;24.23;21.83;;;;;;;;;;2090036;28;20175;-58
2021/08/05 05:26:28;;;;;;;25.42;22.73;;;;;;;;;;2089894;28;20203;-58
2021/08/05 05:27:28;;;;;;;23.63;21.13;;;;;;;;;;2090034;28;20182;-58
2021/08/05 05:28:30;;;;;;;24.63;21.95;;;;;;;;;;2089308;28;20167;-57
2021/08/05 05:29:30;;;;;;;25.30;22.40;;;;;;;;;;2087554;28;20175;-58
2021/08/05 05:30:31;;;;;;;23.83;21.30;;;;;;;;;;2083949;28;20227;-57
2021/08/05 05:31:31;;;;;;;24.42;21.85;;;;;;;;;;2085729;28;20179;-60
2021/08/05 05:32:31;;;;;;;23.83;21.27;;;;;;;;;;2084939;28;20251;-58
2021/08/05 05:33:32;;;;;;;25.02;22.25;;;;;;;;;;2086411;28;20662;-57
2021/08/05 05:34:32;;;;;;;28.13;22.17;;;;;;;;;;2086290;28;20164;-57
2021/08/05 05:35:33;;;;;;;24.88;20.90;;;;;;;;;;2089723;28;20191;-59
2021/08/05 05:36:33;;;;;;;24.85;21.27;;;;;;;;;;2086077;28;20243;-57
2021/08/05 05:37:33;;;;;;;23.55;21.10;;;;;;;;;;2079498;28;20727;-59
2021/08/05 05:38:34;;;;;;;23.75;21.23;;;;;;;;;;2086362;28;20663;-58
2021/08/05 05:39:34;;;;;;;23.08;20.60;;;;;;;;;;2086189;28;20684;-57
2021/08/05 05:40:35;;;;;;;23.17;20.77;;;;;;;;;;2087866;28;20164;-58
2021/08/05 05:41:36;;;;;;;22.77;20.48;;;;;;;;;;2088293;28;20186;-57
2021/08/05 05:42:36;;;;;;;23.05;20.40;;;;;;;;;;2089494;28;20186;-58
2021/08/05 05:43:36;;;;;;;22.63;20.30;;;;;;;;;;2088409;28;20187;-58
2021/08/05 05:44:36;;;;;;;22.10;19.70;;;;;;;;;;2085179;28;20315;-57
2021/08/05 05:45:37;;;;;;;23.02;20.55;;;;;;;;;;2088264;28;20183;-59
2021/08/05 05:46:38;;;;;;;21.95;18.80;;;;;;;;;;2090590;28;20167;-58
2021/08/05 05:47:38;;;;;;;21.67;19.40;;;;;;;;;;2090111;28;20194;-59
2021/08/05 05:48:39;;;;;;;21.10;18.95;;;;;;;;;;2090439;28;20218;-59
2021/08/05 05:49:39;;;;;;;22.95;20.52;;;;;;;;;;2084035;28;20180;-57
2021/08/05 05:50:39;;;;;;;20.77;18.75;;;;;;;;;;2089228;28;20191;-57
2021/08/05 05:51:40;;;;;;;21.10;18.92;;;;;;;;;;2089374;28;20655;-58
2021/08/05 05:52:40;;;;;;;21.98;19.60;;;;;;;;;;2086577;28;20175;-58
2021/08/05 05:53:40;;;;;;;21.92;19.45;;;;;;;;;;2083097;28;20819;-57
2021/08/05 05:54:41;;;;;;;22.52;20.20;;;;;;;;;;2090147;28;20179;-57
2021/08/05 05:55:41;;;;;;;25.10;20.35;;;;;;;;;;2089303;28;20180;-58
2021/08/05 05:56:41;;;;;;;21.50;19.20;;;;;;;;;;2090421;28;20172;-59
2021/08/05 05:57:42;;;;;;;23.17;20.67;;;;;;;;;;2082440;28;20263;-56